sensor_id;sensor_type;location;lat;lon;timestamp;temperature;humidity
44111;DHT22;29774;52.664;5.074;2022-07-06T00:01:20;13.20;80.90
44111;DHT22;29774;52.664;5.074;2022-07-06T00:03:46;13.30;78.20
44111;DHT22;29774;52.664;5.074;2022-07-06T00:06:12;13.40;80.00
44111;DHT22;29774;52.664;5.074;2022-07-06T00:08:38;14.20;78.50
44111;DHT22;29774;52.664;5.074;2022-07-06T00:11:07;13.90;77.70
44111;DHT22;29774;52.664;5.074;2022-07-06T00:13:32;14.30;79.00
44111;DHT22;29774;52.664;5.074;2022-07-06T00:15:58;15.10;73.40
44111;DHT22;29774;52.664;5.074;2022-07-06T00:18:23;15.70;78.00
44111;DHT22;29774;52.664;5.074;2022-07-06T00:20:52;17.00;68.80
44111;DHT22;29774;52.664;5.074;2022-07-06T00:23:18;16.00;69.50
44111;DHT22;29774;52.664;5.074;2022-07-06T00:25:43;17.00;72.20
44111;DHT22;29774;52.664;5.074;2022-07-06T00:28:09;15.70;70.70
44111;DHT22;29774;52.664;5.074;2022-07-06T00:30:34;15.40;71.60
44111;DHT22;29774;52.664;5.074;2022-07-06T00:33:00;14.20;72.60
44111;DHT22;29774;52.664;5.074;2022-07-06T00:35:25;14.80;77.30
44111;DHT22;29774;52.664;5.074;2022-07-06T00:37:51;14.30;72.70
44111;DHT22;29774;52.664;5.074;2022-07-06T00:40:18;14.40;72.60
44111;DHT22;29774;52.664;5.074;2022-07-06T00:42:45;13.90;73.80
44111;DHT22;29774;52.664;5.074;2022-07-06T00:45:12;13.40;76.10
44111;DHT22;29774;52.664;5.074;2022-07-06T00:47:39;14.60;77.20
44111;DHT22;29774;52.664;5.074;2022-07-06T00:50:06;14.10;79.00
44111;DHT22;29774;52.664;5.074;2022-07-06T00:55:25;13.70;75.20
44111;DHT22;29774;52.664;5.074;2022-07-06T00:57:51;13.40;76.60
44111;DHT22;29774;52.664;5.074;2022-07-06T01:00:19;13.30;78.00
44111;DHT22;29774;52.664;5.074;2022-07-06T01:02:45;13.30;80.00
44111;DHT22;29774;52.664;5.074;2022-07-06T01:05:12;13.20;77.00
44111;DHT22;29774;52.664;5.074;2022-07-06T01:07:40;13.70;77.30
44111;DHT22;29774;52.664;5.074;2022-07-06T01:10:07;14.50;82.50
44111;DHT22;29774;52.664;5.074;2022-07-06T01:12:34;14.50;79.30
44111;DHT22;29774;52.664;5.074;2022-07-06T01:15:05;14.30;77.80
44111;DHT22;29774;52.664;5.074;2022-07-06T01:17:32;13.70;75.10
44111;DHT22;29774;52.664;5.074;2022-07-06T01:20:04;13.50;77.10
44111;DHT22;29774;52.664;5.074;2022-07-06T01:22:29;13.70;77.60
44111;DHT22;29774;52.664;5.074;2022-07-06T01:24:55;15.30;70.50
44111;DHT22;29774;52.664;5.074;2022-07-06T01:27:20;14.90;72.50
44111;DHT22;29774;52.664;5.074;2022-07-06T01:29:46;14.70;70.60
44111;DHT22;29774;52.664;5.074;2022-07-06T01:32:11;14.00;73.80
44111;DHT22;29774;52.664;5.074;2022-07-06T01:34:37;13.70;74.40
44111;DHT22;29774;52.664;5.074;2022-07-06T01:37:03;13.70;74.50
44111;DHT22;29774;52.664;5.074;2022-07-06T01:39:28;15.00;73.90
44111;DHT22;29774;52.664;5.074;2022-07-06T01:41:54;14.80;76.60
44111;DHT22;29774;52.664;5.074;2022-07-06T01:44:19;14.10;73.50
44111;DHT22;29774;52.664;5.074;2022-07-06T01:46:45;13.70;75.40
44111;DHT22;29774;52.664;5.074;2022-07-06T01:49:10;13.90;74.50
44111;DHT22;29774;52.664;5.074;2022-07-06T01:51:36;13.70;75.60
44111;DHT22;29774;52.664;5.074;2022-07-06T01:54:01;13.70;75.20
44111;DHT22;29774;52.664;5.074;2022-07-06T01:56:27;14.00;74.30
44111;DHT22;29774;52.664;5.074;2022-07-06T01:58:52;13.60;76.00
44111;DHT22;29774;52.664;5.074;2022-07-06T02:01:19;13.60;76.00
44111;DHT22;29774;52.664;5.074;2022-07-06T02:03:46;13.90;75.80
44111;DHT22;29774;52.664;5.074;2022-07-06T02:06:12;13.60;75.60
44111;DHT22;29774;52.664;5.074;2022-07-06T02:08:38;13.40;75.70
44111;DHT22;29774;52.664;5.074;2022-07-06T02:11:05;13.40;76.30
44111;DHT22;29774;52.664;5.074;2022-07-06T02:13:33;13.30;76.90
44111;DHT22;29774;52.664;5.074;2022-07-06T02:15:59;13.40;76.90
44111;DHT22;29774;52.664;5.074;2022-07-06T02:18:24;13.60;76.10
44111;DHT22;29774;52.664;5.074;2022-07-06T02:20:50;13.90;74.80
44111;DHT22;29774;52.664;5.074;2022-07-06T02:23:15;13.70;75.70
44111;DHT22;29774;52.664;5.074;2022-07-06T02:25:41;13.60;75.50
44111;DHT22;29774;52.664;5.074;2022-07-06T02:28:07;13.60;76.20
44111;DHT22;29774;52.664;5.074;2022-07-06T02:30:32;14.00;76.90
44111;DHT22;29774;52.664;5.074;2022-07-06T02:32:58;13.90;75.30
44111;DHT22;29774;52.664;5.074;2022-07-06T02:35:23;14.10;74.50
44111;DHT22;29774;52.664;5.074;2022-07-06T02:37:49;13.90;75.30
44111;DHT22;29774;52.664;5.074;2022-07-06T02:40:14;13.80;75.80
44111;DHT22;29774;52.664;5.074;2022-07-06T02:42:40;15.70;71.50
44111;DHT22;29774;52.664;5.074;2022-07-06T02:45:07;16.00;73.80
44111;DHT22;29774;52.664;5.074;2022-07-06T02:47:33;18.10;63.90
44111;DHT22;29774;52.664;5.074;2022-07-06T02:49:58;16.10;66.70
44111;DHT22;29774;52.664;5.074;2022-07-06T02:52:24;17.20;70.00
44111;DHT22;29774;52.664;5.074;2022-07-06T02:54:50;17.80;63.90
44111;DHT22;29774;52.664;5.074;2022-07-06T02:57:16;15.90;67.10
44111;DHT22;29774;52.664;5.074;2022-07-06T02:59:42;15.70;68.80
44111;DHT22;29774;52.664;5.074;2022-07-06T03:02:08;14.90;71.50
44111;DHT22;29774;52.664;5.074;2022-07-06T03:04:34;15.50;69.80
44111;DHT22;29774;52.664;5.074;2022-07-06T03:07:00;14.70;72.20
44111;DHT22;29774;52.664;5.074;2022-07-06T03:09:26;14.30;74.10
44111;DHT22;29774;52.664;5.074;2022-07-06T03:11:51;14.20;75.10
44111;DHT22;29774;52.664;5.074;2022-07-06T03:14:17;14.20;75.70
44111;DHT22;29774;52.664;5.074;2022-07-06T03:16:43;14.10;75.90
44111;DHT22;29774;52.664;5.074;2022-07-06T03:19:08;14.90;73.10
44111;DHT22;29774;52.664;5.074;2022-07-06T03:21:34;14.70;74.10
44111;DHT22;29774;52.664;5.074;2022-07-06T03:24:00;14.40;74.60
44111;DHT22;29774;52.664;5.074;2022-07-06T03:26:26;15.20;73.80
44111;DHT22;29774;52.664;5.074;2022-07-06T03:28:51;14.50;73.90
44111;DHT22;29774;52.664;5.074;2022-07-06T03:31:17;14.40;73.90
44111;DHT22;29774;52.664;5.074;2022-07-06T03:33:42;13.90;75.80
44111;DHT22;29774;52.664;5.074;2022-07-06T03:36:08;14.30;76.50
44111;DHT22;29774;52.664;5.074;2022-07-06T03:38:35;13.70;75.90
44111;DHT22;29774;52.664;5.074;2022-07-06T03:41:00;13.70;76.80
44111;DHT22;29774;52.664;5.074;2022-07-06T03:43:26;13.30;77.20
44111;DHT22;29774;52.664;5.074;2022-07-06T03:45:51;13.20;78.50
44111;DHT22;29774;52.664;5.074;2022-07-06T03:48:17;13.20;78.90
44111;DHT22;29774;52.664;5.074;2022-07-06T03:50:42;13.20;78.40
44111;DHT22;29774;52.664;5.074;2022-07-06T03:53:08;13.00;79.10
44111;DHT22;29774;52.664;5.074;2022-07-06T03:55:34;13.00;79.10
44111;DHT22;29774;52.664;5.074;2022-07-06T03:57:59;12.90;79.00
44111;DHT22;29774;52.664;5.074;2022-07-06T04:00:25;12.80;79.60
44111;DHT22;29774;52.664;5.074;2022-07-06T04:02:50;12.80;80.00
44111;DHT22;29774;52.664;5.074;2022-07-06T04:05:16;12.80;80.30
44111;DHT22;29774;52.664;5.074;2022-07-06T04:07:47;12.80;80.40
44111;DHT22;29774;52.664;5.074;2022-07-06T04:10:13;12.80;79.40
44111;DHT22;29774;52.664;5.074;2022-07-06T04:12:45;12.80;80.50
44111;DHT22;29774;52.664;5.074;2022-07-06T04:15:11;12.80;80.50
44111;DHT22;29774;52.664;5.074;2022-07-06T04:17:38;12.80;80.60
44111;DHT22;29774;52.664;5.074;2022-07-06T04:20:22;13.00;79.70
44111;DHT22;29774;52.664;5.074;2022-07-06T04:22:49;12.80;80.10
44111;DHT22;29774;52.664;5.074;2022-07-06T04:25:15;13.10;79.30
44111;DHT22;29774;52.664;5.074;2022-07-06T04:27:41;13.40;76.60
44111;DHT22;29774;52.664;5.074;2022-07-06T04:30:08;13.70;81.50
44111;DHT22;29774;52.664;5.074;2022-07-06T04:32:34;13.50;75.70
44111;DHT22;29774;52.664;5.074;2022-07-06T04:35:00;13.20;77.10
44111;DHT22;29774;52.664;5.074;2022-07-06T04:37:26;13.20;76.90
44111;DHT22;29774;52.664;5.074;2022-07-06T04:39:51;13.00;77.80
44111;DHT22;29774;52.664;5.074;2022-07-06T04:42:17;14.30;75.60
44111;DHT22;29774;52.664;5.074;2022-07-06T04:44:42;16.00;68.90
44111;DHT22;29774;52.664;5.074;2022-07-06T04:47:08;14.50;71.60
44111;DHT22;29774;52.664;5.074;2022-07-06T04:49:34;14.30;72.80
44111;DHT22;29774;52.664;5.074;2022-07-06T04:51:59;13.90;74.60
44111;DHT22;29774;52.664;5.074;2022-07-06T04:54:25;13.70;75.40
44111;DHT22;29774;52.664;5.074;2022-07-06T04:56:51;14.00;75.20
44111;DHT22;29774;52.664;5.074;2022-07-06T04:59:16;14.10;75.20
44111;DHT22;29774;52.664;5.074;2022-07-06T05:01:42;16.20;69.00
44111;DHT22;29774;52.664;5.074;2022-07-06T05:04:08;15.90;67.70
44111;DHT22;29774;52.664;5.074;2022-07-06T05:06:34;15.50;69.60
44111;DHT22;29774;52.664;5.074;2022-07-06T05:08:59;17.20;65.60
44111;DHT22;29774;52.664;5.074;2022-07-06T05:11:26;17.20;65.80
44111;DHT22;29774;52.664;5.074;2022-07-06T05:13:52;17.10;63.50
44111;DHT22;29774;52.664;5.074;2022-07-06T05:16:18;16.60;70.70
44111;DHT22;29774;52.664;5.074;2022-07-06T05:18:43;18.90;60.50
44111;DHT22;29774;52.664;5.074;2022-07-06T05:21:09;18.00;61.10
44111;DHT22;29774;52.664;5.074;2022-07-06T05:23:35;18.90;61.40
44111;DHT22;29774;52.664;5.074;2022-07-06T05:26:00;19.40;58.40
44111;DHT22;29774;52.664;5.074;2022-07-06T05:28:26;19.20;61.60
44111;DHT22;29774;52.664;5.074;2022-07-06T05:30:51;19.50;60.30
44111;DHT22;29774;52.664;5.074;2022-07-06T05:33:17;20.00;56.50
44111;DHT22;29774;52.664;5.074;2022-07-06T05:35:42;20.90;56.10
44111;DHT22;29774;52.664;5.074;2022-07-06T05:38:08;21.10;53.40
44111;DHT22;29774;52.664;5.074;2022-07-06T05:40:33;21.00;55.40
44111;DHT22;29774;52.664;5.074;2022-07-06T05:42:59;21.20;54.60
44111;DHT22;29774;52.664;5.074;2022-07-06T05:45:25;21.30;54.30
44111;DHT22;29774;52.664;5.074;2022-07-06T05:47:51;21.40;54.00
44111;DHT22;29774;52.664;5.074;2022-07-06T05:50:35;21.40;54.00
44111;DHT22;29774;52.664;5.074;2022-07-06T05:53:03;21.30;54.00
44111;DHT22;29774;52.664;5.074;2022-07-06T05:55:29;21.30;53.40
44111;DHT22;29774;52.664;5.074;2022-07-06T05:57:55;21.40;53.70
44111;DHT22;29774;52.664;5.074;2022-07-06T06:00:24;21.20;54.00
44111;DHT22;29774;52.664;5.074;2022-07-06T06:02:51;21.30;53.80
44111;DHT22;29774;52.664;5.074;2022-07-06T06:05:17;21.40;53.60
44111;DHT22;29774;52.664;5.074;2022-07-06T06:07:43;21.20;54.30
44111;DHT22;29774;52.664;5.074;2022-07-06T06:10:11;21.20;53.40
44111;DHT22;29774;52.664;5.074;2022-07-06T06:12:37;21.30;53.80
44111;DHT22;29774;52.664;5.074;2022-07-06T06:15:03;21.30;53.60
44111;DHT22;29774;52.664;5.074;2022-07-06T06:17:29;21.40;53.70
44111;DHT22;29774;52.664;5.074;2022-07-06T06:19:55;21.40;53.70
44111;DHT22;29774;52.664;5.074;2022-07-06T06:22:21;21.30;53.90
44111;DHT22;29774;52.664;5.074;2022-07-06T06:24:47;21.30;53.90
44111;DHT22;29774;52.664;5.074;2022-07-06T06:27:12;21.40;53.80
44111;DHT22;29774;52.664;5.074;2022-07-06T06:29:38;21.40;53.60
44111;DHT22;29774;52.664;5.074;2022-07-06T06:32:04;21.40;53.70
44111;DHT22;29774;52.664;5.074;2022-07-06T06:34:31;21.40;53.60
44111;DHT22;29774;52.664;5.074;2022-07-06T06:36:57;21.40;53.50
44111;DHT22;29774;52.664;5.074;2022-07-06T06:39:23;21.40;53.50
44111;DHT22;29774;52.664;5.074;2022-07-06T06:41:48;21.40;53.50
44111;DHT22;29774;52.664;5.074;2022-07-06T06:44:14;21.40;53.60
44111;DHT22;29774;52.664;5.074;2022-07-06T06:46:40;21.50;53.50
44111;DHT22;29774;52.664;5.074;2022-07-06T06:49:06;21.50;53.30
44111;DHT22;29774;52.664;5.074;2022-07-06T06:51:32;21.50;53.20
44111;DHT22;29774;52.664;5.074;2022-07-06T06:53:57;21.50;53.10
44111;DHT22;29774;52.664;5.074;2022-07-06T06:56:23;21.40;53.60
44111;DHT22;29774;52.664;5.074;2022-07-06T06:58:49;21.40;53.80
44111;DHT22;29774;52.664;5.074;2022-07-06T07:01:14;21.40;53.70
44111;DHT22;29774;52.664;5.074;2022-07-06T07:03:40;21.40;53.60
44111;DHT22;29774;52.664;5.074;2022-07-06T07:06:06;21.40;53.60
44111;DHT22;29774;52.664;5.074;2022-07-06T07:08:31;21.30;54.10
44111;DHT22;29774;52.664;5.074;2022-07-06T07:10:57;21.30;53.90
44111;DHT22;29774;52.664;5.074;2022-07-06T07:13:23;21.30;53.90
44111;DHT22;29774;52.664;5.074;2022-07-06T07:15:48;21.40;53.80
44111;DHT22;29774;52.664;5.074;2022-07-06T07:18:14;21.40;53.70
44111;DHT22;29774;52.664;5.074;2022-07-06T07:20:39;21.40;53.70
44111;DHT22;29774;52.664;5.074;2022-07-06T07:23:05;21.40;53.80
44111;DHT22;29774;52.664;5.074;2022-07-06T07:25:31;21.30;54.00
44111;DHT22;29774;52.664;5.074;2022-07-06T07:27:56;21.40;53.90
44111;DHT22;29774;52.664;5.074;2022-07-06T07:30:22;21.40;53.80
44111;DHT22;29774;52.664;5.074;2022-07-06T07:32:48;21.40;53.90
44111;DHT22;29774;52.664;5.074;2022-07-06T07:35:14;21.40;53.20
44111;DHT22;29774;52.664;5.074;2022-07-06T07:37:39;21.50;53.40
44111;DHT22;29774;52.664;5.074;2022-07-06T07:40:05;21.60;53.40
44111;DHT22;29774;52.664;5.074;2022-07-06T07:42:31;21.60;53.40
44111;DHT22;29774;52.664;5.074;2022-07-06T07:44:57;21.70;53.20
44111;DHT22;29774;52.664;5.074;2022-07-06T07:47:23;21.70;53.20
44111;DHT22;29774;52.664;5.074;2022-07-06T07:49:48;21.80;52.30
44111;DHT22;29774;52.664;5.074;2022-07-06T07:52:14;21.80;53.00
44111;DHT22;29774;52.664;5.074;2022-07-06T07:54:40;21.80;52.90
44111;DHT22;29774;52.664;5.074;2022-07-06T07:57:05;21.80;52.80
44111;DHT22;29774;52.664;5.074;2022-07-06T07:59:31;21.90;52.70
44111;DHT22;29774;52.664;5.074;2022-07-06T08:01:56;21.90;52.70
44111;DHT22;29774;52.664;5.074;2022-07-06T08:04:22;21.90;52.70
44111;DHT22;29774;52.664;5.074;2022-07-06T08:06:48;21.90;53.10
44111;DHT22;29774;52.664;5.074;2022-07-06T08:09:14;22.00;52.80
44111;DHT22;29774;52.664;5.074;2022-07-06T08:11:41;21.90;52.90
44111;DHT22;29774;52.664;5.074;2022-07-06T08:14:06;22.00;52.80
44111;DHT22;29774;52.664;5.074;2022-07-06T08:16:32;22.00;53.20
44111;DHT22;29774;52.664;5.074;2022-07-06T08:18:58;22.00;52.70
44111;DHT22;29774;52.664;5.074;2022-07-06T08:21:24;22.00;52.90
44111;DHT22;29774;52.664;5.074;2022-07-06T08:23:49;22.10;52.80
44111;DHT22;29774;52.664;5.074;2022-07-06T08:26:15;22.10;52.80
44111;DHT22;29774;52.664;5.074;2022-07-06T08:28:40;22.20;52.50
44111;DHT22;29774;52.664;5.074;2022-07-06T08:31:06;22.20;52.40
44111;DHT22;29774;52.664;5.074;2022-07-06T08:33:32;22.20;52.50
44111;DHT22;29774;52.664;5.074;2022-07-06T08:35:57;22.20;52.40
44111;DHT22;29774;52.664;5.074;2022-07-06T08:38:23;22.20;52.30
44111;DHT22;29774;52.664;5.074;2022-07-06T08:40:49;22.30;52.20
44111;DHT22;29774;52.664;5.074;2022-07-06T08:43:16;22.20;52.20
44111;DHT22;29774;52.664;5.074;2022-07-06T08:45:42;22.20;52.10
44111;DHT22;29774;52.664;5.074;2022-07-06T08:48:11;22.30;52.10
44111;DHT22;29774;52.664;5.074;2022-07-06T08:50:38;22.30;52.20
44111;DHT22;29774;52.664;5.074;2022-07-06T08:53:04;22.20;52.50
44111;DHT22;29774;52.664;5.074;2022-07-06T08:55:30;22.30;52.30
44111;DHT22;29774;52.664;5.074;2022-07-06T08:57:56;22.40;51.40
44111;DHT22;29774;52.664;5.074;2022-07-06T09:00:23;22.40;51.80
44111;DHT22;29774;52.664;5.074;2022-07-06T09:02:50;22.50;51.30
44111;DHT22;29774;52.664;5.074;2022-07-06T09:05:17;22.40;51.70
44111;DHT22;29774;52.664;5.074;2022-07-06T09:07:45;22.50;51.40
44111;DHT22;29774;52.664;5.074;2022-07-06T09:10:13;22.50;49.90
44111;DHT22;29774;52.664;5.074;2022-07-06T09:12:38;22.50;51.70
44111;DHT22;29774;52.664;5.074;2022-07-06T09:15:04;22.40;51.70
44111;DHT22;29774;52.664;5.074;2022-07-06T09:17:30;22.40;51.80
44111;DHT22;29774;52.664;5.074;2022-07-06T09:19:56;22.40;52.10
44111;DHT22;29774;52.664;5.074;2022-07-06T09:22:31;22.40;51.90
44111;DHT22;29774;52.664;5.074;2022-07-06T09:25:12;22.40;51.90
44111;DHT22;29774;52.664;5.074;2022-07-06T09:27:45;22.40;52.00
44111;DHT22;29774;52.664;5.074;2022-07-06T09:30:13;22.40;52.00
44111;DHT22;29774;52.664;5.074;2022-07-06T09:32:45;22.40;51.80
44111;DHT22;29774;52.664;5.074;2022-07-06T09:35:24;22.50;51.90
44111;DHT22;29774;52.664;5.074;2022-07-06T09:38:01;22.50;51.10
44111;DHT22;29774;52.664;5.074;2022-07-06T09:40:27;22.50;51.80
44111;DHT22;29774;52.664;5.074;2022-07-06T09:43:07;22.50;51.90
44111;DHT22;29774;52.664;5.074;2022-07-06T09:45:38;22.50;51.90
44111;DHT22;29774;52.664;5.074;2022-07-06T09:48:12;22.50;49.60
44111;DHT22;29774;52.664;5.074;2022-07-06T09:50:42;22.60;51.50
44111;DHT22;29774;52.664;5.074;2022-07-06T09:53:09;22.50;51.70
44111;DHT22;29774;52.664;5.074;2022-07-06T09:55:35;22.70;50.60
44111;DHT22;29774;52.664;5.074;2022-07-06T09:58:01;23.00;49.90
44111;DHT22;29774;52.664;5.074;2022-07-06T10:00:26;22.70;51.10
44111;DHT22;29774;52.664;5.074;2022-07-06T10:02:53;22.70;51.60
44111;DHT22;29774;52.664;5.074;2022-07-06T10:05:21;22.70;51.60
44111;DHT22;29774;52.664;5.074;2022-07-06T10:07:56;22.70;51.80
44111;DHT22;29774;52.664;5.074;2022-07-06T10:10:25;22.80;51.00
44111;DHT22;29774;52.664;5.074;2022-07-06T10:12:57;22.80;45.60
44111;DHT22;29774;52.664;5.074;2022-07-06T10:15:25;22.90;51.00
44111;DHT22;29774;52.664;5.074;2022-07-06T10:17:51;22.90;51.00
44111;DHT22;29774;52.664;5.074;2022-07-06T10:20:18;22.70;51.80
44111;DHT22;29774;52.664;5.074;2022-07-06T10:22:47;22.70;51.80
44111;DHT22;29774;52.664;5.074;2022-07-06T10:25:16;22.80;51.50
44111;DHT22;29774;52.664;5.074;2022-07-06T10:27:42;22.70;51.60
44111;DHT22;29774;52.664;5.074;2022-07-06T10:30:09;22.70;52.10
44111;DHT22;29774;52.664;5.074;2022-07-06T10:32:35;22.80;51.40
44111;DHT22;29774;52.664;5.074;2022-07-06T10:35:02;23.10;47.40
44111;DHT22;29774;52.664;5.074;2022-07-06T10:37:28;23.10;50.70
44111;DHT22;29774;52.664;5.074;2022-07-06T10:39:54;22.90;51.40
44111;DHT22;29774;52.664;5.074;2022-07-06T10:45:05;23.00;49.70
44111;DHT22;29774;52.664;5.074;2022-07-06T10:47:31;23.00;51.10
44111;DHT22;29774;52.664;5.074;2022-07-06T10:50:00;22.70;51.40
44111;DHT22;29774;52.664;5.074;2022-07-06T10:52:48;22.90;51.10
44111;DHT22;29774;52.664;5.074;2022-07-06T10:57:54;23.00;51.40
44111;DHT22;29774;52.664;5.074;2022-07-06T11:00:20;23.10;50.30
44111;DHT22;29774;52.664;5.074;2022-07-06T11:02:46;23.00;51.70
44111;DHT22;29774;52.664;5.074;2022-07-06T11:05:13;23.20;49.20
44111;DHT22;29774;52.664;5.074;2022-07-06T11:08:00;23.30;50.10
44111;DHT22;29774;52.664;5.074;2022-07-06T11:10:26;23.20;48.80
44111;DHT22;29774;52.664;5.074;2022-07-06T11:12:59;23.30;48.00
44111;DHT22;29774;52.664;5.074;2022-07-06T11:15:48;23.40;50.20
44111;DHT22;29774;52.664;5.074;2022-07-06T11:18:19;23.30;49.10
44111;DHT22;29774;52.664;5.074;2022-07-06T11:23:42;23.10;51.50
44111;DHT22;29774;52.664;5.074;2022-07-06T11:26:10;23.20;49.90
44111;DHT22;29774;52.664;5.074;2022-07-06T11:28:37;23.50;50.10
44111;DHT22;29774;52.664;5.074;2022-07-06T11:31:03;23.40;49.70
44111;DHT22;29774;52.664;5.074;2022-07-06T11:33:32;23.50;49.80
44111;DHT22;29774;52.664;5.074;2022-07-06T11:36:15;23.30;49.10
44111;DHT22;29774;52.664;5.074;2022-07-06T11:38:41;23.50;50.20
44111;DHT22;29774;52.664;5.074;2022-07-06T11:41:07;23.50;50.60
44111;DHT22;29774;52.664;5.074;2022-07-06T11:43:33;23.40;49.10
44111;DHT22;29774;52.664;5.074;2022-07-06T11:46:00;23.40;49.40
44111;DHT22;29774;52.664;5.074;2022-07-06T11:48:25;23.50;50.20
44111;DHT22;29774;52.664;5.074;2022-07-06T11:51:01;23.40;50.70
44111;DHT22;29774;52.664;5.074;2022-07-06T11:53:27;23.30;48.60
44111;DHT22;29774;52.664;5.074;2022-07-06T11:55:53;23.30;51.10
44111;DHT22;29774;52.664;5.074;2022-07-06T11:58:22;23.50;50.60
44111;DHT22;29774;52.664;5.074;2022-07-06T12:01:05;23.60;49.90
44111;DHT22;29774;52.664;5.074;2022-07-06T12:03:31;23.50;50.90
44111;DHT22;29774;52.664;5.074;2022-07-06T12:06:01;23.60;50.50
44111;DHT22;29774;52.664;5.074;2022-07-06T12:08:27;23.50;51.10
44111;DHT22;29774;52.664;5.074;2022-07-06T12:10:53;23.20;51.90
44111;DHT22;29774;52.664;5.074;2022-07-06T12:13:19;23.50;50.80
44111;DHT22;29774;52.664;5.074;2022-07-06T12:16:32;23.50;49.60
44111;DHT22;29774;52.664;5.074;2022-07-06T12:19:00;23.60;47.30
44111;DHT22;29774;52.664;5.074;2022-07-06T12:21:26;23.70;49.80
44111;DHT22;29774;52.664;5.074;2022-07-06T12:23:53;23.70;50.60
44111;DHT22;29774;52.664;5.074;2022-07-06T12:26:25;23.60;50.10
44111;DHT22;29774;52.664;5.074;2022-07-06T12:29:07;23.60;50.50
44111;DHT22;29774;52.664;5.074;2022-07-06T12:31:38;23.60;50.30
44111;DHT22;29774;52.664;5.074;2022-07-06T12:34:05;23.50;50.80
44111;DHT22;29774;52.664;5.074;2022-07-06T12:36:31;23.50;50.90
44111;DHT22;29774;52.664;5.074;2022-07-06T12:39:11;23.40;51.40
44111;DHT22;29774;52.664;5.074;2022-07-06T12:41:38;23.60;51.10
44111;DHT22;29774;52.664;5.074;2022-07-06T12:44:09;23.50;50.60
44111;DHT22;29774;52.664;5.074;2022-07-06T12:46:37;23.50;50.90
44111;DHT22;29774;52.664;5.074;2022-07-06T12:49:12;23.50;50.90
44111;DHT22;29774;52.664;5.074;2022-07-06T12:51:50;23.50;51.10
44111;DHT22;29774;52.664;5.074;2022-07-06T12:54:16;23.60;51.30
44111;DHT22;29774;52.664;5.074;2022-07-06T12:57:02;23.50;49.10
44111;DHT22;29774;52.664;5.074;2022-07-06T12:59:29;23.60;50.60
44111;DHT22;29774;52.664;5.074;2022-07-06T13:01:55;23.60;48.80
44111;DHT22;29774;52.664;5.074;2022-07-06T13:04:23;23.50;51.40
44111;DHT22;29774;52.664;5.074;2022-07-06T13:06:49;23.50;51.20
44111;DHT22;29774;52.664;5.074;2022-07-06T13:09:15;23.50;51.10
44111;DHT22;29774;52.664;5.074;2022-07-06T13:11:42;23.50;51.30
44111;DHT22;29774;52.664;5.074;2022-07-06T13:14:07;23.50;49.70
44111;DHT22;29774;52.664;5.074;2022-07-06T13:16:35;23.50;50.50
44111;DHT22;29774;52.664;5.074;2022-07-06T13:19:01;23.50;51.40
44111;DHT22;29774;52.664;5.074;2022-07-06T13:21:27;23.50;51.60
44111;DHT22;29774;52.664;5.074;2022-07-06T13:23:52;23.50;51.40
44111;DHT22;29774;52.664;5.074;2022-07-06T13:26:18;23.50;49.30
44111;DHT22;29774;52.664;5.074;2022-07-06T13:28:43;23.60;51.40
44111;DHT22;29774;52.664;5.074;2022-07-06T13:31:09;23.50;50.70
44111;DHT22;29774;52.664;5.074;2022-07-06T13:33:35;23.60;51.80
44111;DHT22;29774;52.664;5.074;2022-07-06T13:36:01;23.50;49.40
44111;DHT22;29774;52.664;5.074;2022-07-06T13:38:27;23.50;52.50
44111;DHT22;29774;52.664;5.074;2022-07-06T13:40:53;23.50;52.20
44111;DHT22;29774;52.664;5.074;2022-07-06T13:43:19;23.50;51.50
44111;DHT22;29774;52.664;5.074;2022-07-06T13:45:46;23.50;51.30
44111;DHT22;29774;52.664;5.074;2022-07-06T13:48:11;23.50;51.40
44111;DHT22;29774;52.664;5.074;2022-07-06T13:50:37;23.50;51.70
44111;DHT22;29774;52.664;5.074;2022-07-06T13:53:02;23.50;51.50
44111;DHT22;29774;52.664;5.074;2022-07-06T13:55:29;23.50;51.60
44111;DHT22;29774;52.664;5.074;2022-07-06T13:57:55;23.40;51.80
44111;DHT22;29774;52.664;5.074;2022-07-06T14:00:20;23.50;50.90
44111;DHT22;29774;52.664;5.074;2022-07-06T14:02:46;23.50;51.00
44111;DHT22;29774;52.664;5.074;2022-07-06T14:05:12;23.50;51.20
44111;DHT22;29774;52.664;5.074;2022-07-06T14:07:37;23.60;50.80
44111;DHT22;29774;52.664;5.074;2022-07-06T14:10:03;23.50;51.70
44111;DHT22;29774;52.664;5.074;2022-07-06T14:12:29;23.50;51.90
44111;DHT22;29774;52.664;5.074;2022-07-06T14:14:55;23.50;51.80
44111;DHT22;29774;52.664;5.074;2022-07-06T14:17:21;23.50;51.60
44111;DHT22;29774;52.664;5.074;2022-07-06T14:19:48;23.50;52.40
44111;DHT22;29774;52.664;5.074;2022-07-06T14:22:13;23.50;52.30
44111;DHT22;29774;52.664;5.074;2022-07-06T14:24:39;23.40;52.00
44111;DHT22;29774;52.664;5.074;2022-07-06T14:27:05;23.40;52.00
44111;DHT22;29774;52.664;5.074;2022-07-06T14:29:30;23.40;51.40
44111;DHT22;29774;52.664;5.074;2022-07-06T14:31:56;23.40;51.70
44111;DHT22;29774;52.664;5.074;2022-07-06T14:34:21;23.50;51.90
44111;DHT22;29774;52.664;5.074;2022-07-06T14:36:47;23.50;52.00
44111;DHT22;29774;52.664;5.074;2022-07-06T14:39:12;23.50;51.90
44111;DHT22;29774;52.664;5.074;2022-07-06T14:41:41;23.50;52.10
44111;DHT22;29774;52.664;5.074;2022-07-06T14:44:06;23.60;52.00
44111;DHT22;29774;52.664;5.074;2022-07-06T14:46:32;23.50;52.20
44111;DHT22;29774;52.664;5.074;2022-07-06T14:49:00;23.60;51.90
44111;DHT22;29774;52.664;5.074;2022-07-06T14:51:25;23.50;52.40
44111;DHT22;29774;52.664;5.074;2022-07-06T14:53:51;23.40;52.70
44111;DHT22;29774;52.664;5.074;2022-07-06T14:56:16;23.50;52.30
44111;DHT22;29774;52.664;5.074;2022-07-06T14:58:42;23.50;52.30
44111;DHT22;29774;52.664;5.074;2022-07-06T15:01:08;23.50;52.20
44111;DHT22;29774;52.664;5.074;2022-07-06T15:03:33;23.50;52.20
44111;DHT22;29774;52.664;5.074;2022-07-06T15:05:59;23.40;52.60
44111;DHT22;29774;52.664;5.074;2022-07-06T15:08:25;23.30;53.00
44111;DHT22;29774;52.664;5.074;2022-07-06T15:10:50;23.40;53.00
44111;DHT22;29774;52.664;5.074;2022-07-06T15:13:16;23.30;54.40
44111;DHT22;29774;52.664;5.074;2022-07-06T15:15:42;23.40;53.20
44111;DHT22;29774;52.664;5.074;2022-07-06T15:18:07;23.30;53.20
44111;DHT22;29774;52.664;5.074;2022-07-06T15:20:33;23.30;53.10
44111;DHT22;29774;52.664;5.074;2022-07-06T15:22:59;23.40;52.80
44111;DHT22;29774;52.664;5.074;2022-07-06T15:25:25;23.50;52.90
44111;DHT22;29774;52.664;5.074;2022-07-06T15:27:51;23.50;52.70
44111;DHT22;29774;52.664;5.074;2022-07-06T15:30:17;23.50;52.70
44111;DHT22;29774;52.664;5.074;2022-07-06T15:32:42;23.50;53.00
44111;DHT22;29774;52.664;5.074;2022-07-06T15:35:08;23.50;53.00
44111;DHT22;29774;52.664;5.074;2022-07-06T15:37:34;23.50;53.40
44111;DHT22;29774;52.664;5.074;2022-07-06T15:40:01;23.50;54.20